Time;durP1;ratioP1;P1;durP2;ratioP2;P2;SDS_P1;SDS_P2;PMS_P1;PMS_P2;Temp;Humidity;BMP_temperature;BMP_pressure;BME280_temperature;BME280_humidity;BME280_pressure;Samples;Min_cycle;Max_cycle;Signal;HPM_P1;HPM_P2
2022/07/06 00:02:15;;;;;;;5.28;2.05;;;14.90;56.00;;;;;;5063520;28;20230;-44
2022/07/06 00:04:46;;;;;;;3.88;1.90;;;14.90;56.10;;;;;;5067121;28;20199;-45
2022/07/06 00:07:16;;;;;;;2.83;1.85;;;14.90;56.10;;;;;;5057388;28;20199;-45
2022/07/06 00:09:47;;;;;;;3.78;1.90;;;14.90;56.10;;;;;;5059931;28;20199;-45
2022/07/06 00:12:18;;;;;;;3.45;2.28;;;14.90;56.20;;;;;;5070701;28;20572;-43
2022/07/06 00:14:50;;;;;;;3.92;2.28;;;14.90;56.20;;;;;;5070883;28;20815;-44
2022/07/06 00:17:21;;;;;;;3.47;1.80;;;15.00;56.20;;;;;;5070121;28;20202;-44
2022/07/06 00:19:52;;;;;;;3.25;1.80;;;15.00;56.20;;;;;;5070832;28;20194;-44
2022/07/06 00:22:22;;;;;;;4.30;1.90;;;15.00;56.10;;;;;;5070075;28;20238;-44
2022/07/06 00:24:53;;;;;;;4.07;1.85;;;15.00;56.10;;;;;;5069845;28;20546;-44
2022/07/06 00:27:24;;;;;;;4.00;2.20;;;15.10;56.10;;;;;;5070277;28;20209;-43
2022/07/06 00:29:56;;;;;;;3.92;1.98;;;15.10;56.10;;;;;;5069661;28;20191;-43
2022/07/06 00:32:27;;;;;;;5.00;2.13;;;15.10;56.00;;;;;;5070293;28;20223;-44
2022/07/06 00:34:58;;;;;;;5.88;2.35;;;15.10;56.10;;;;;;5061423;28;20497;-43
2022/07/06 00:37:29;;;;;;;3.97;2.30;;;15.10;56.20;;;;;;5050822;28;20196;-43
2022/07/06 00:39:59;;;;;;;4.50;1.95;;;15.10;56.20;;;;;;5049866;28;20188;-44
2022/07/06 00:42:30;;;;;;;3.97;1.90;;;15.20;56.30;;;;;;5064650;28;20234;-44
2022/07/06 00:45:03;;;;;;;5.20;2.17;;;15.20;56.20;;;;;;5069915;28;20187;-44
2022/07/06 00:47:33;;;;;;;3.40;2.08;;;15.20;56.30;;;;;;5067725;28;20206;-43
2022/07/06 00:50:18;;;;;;;3.95;2.20;;;15.20;56.30;;;;;;5069704;28;20279;-44
2022/07/06 00:52:49;;;;;;;2.75;1.80;;;15.20;56.30;;;;;;5068903;28;20229;-44
2022/07/06 00:55:22;;;;;;;3.58;2.10;;;15.30;56.30;;;;;;5053162;28;20225;-44
2022/07/06 00:57:53;;;;;;;5.88;2.33;;;15.30;56.30;;;;;;5054258;28;20207;-44
2022/07/06 01:00:26;;;;;;;5.50;2.13;;;15.30;56.30;;;;;;5063161;28;20195;-44
2022/07/06 01:02:58;;;;;;;3.38;1.90;;;15.30;56.30;;;;;;5073962;28;20218;-45
2022/07/06 01:05:29;;;;;;;3.88;1.90;;;15.40;56.20;;;;;;5061626;28;20195;-45
2022/07/06 01:08:00;;;;;;;4.00;1.90;;;15.40;56.20;;;;;;5054765;28;20218;-45
2022/07/06 01:10:31;;;;;;;3.97;1.90;;;15.40;56.20;;;;;;5054640;28;20196;-45
2022/07/06 01:13:02;;;;;;;3.95;1.92;;;15.40;56.30;;;;;;5052526;28;20772;-45
2022/07/06 01:15:34;;;;;;;4.47;1.95;;;15.40;56.40;;;;;;5073613;28;20191;-45
2022/07/06 01:18:06;;;;;;;3.70;2.03;;;15.50;56.60;;;;;;5074111;28;20203;-44
2022/07/06 01:20:38;;;;;;;4.32;2.08;;;15.50;56.60;;;;;;5058366;28;20329;-44
2022/07/06 01:23:09;;;;;;;3.35;1.90;;;15.50;56.70;;;;;;5052577;28;20933;-45
2022/07/06 01:25:40;;;;;;;2.72;1.70;;;15.60;56.60;;;;;;5058584;28;20206;-44
2022/07/06 01:28:10;;;;;;;3.38;1.65;;;15.60;56.50;;;;;;5073769;28;20193;-44
2022/07/06 01:30:41;;;;;;;4.15;1.85;;;15.60;57.00;;;;;;5073029;28;20218;-44
2022/07/06 01:33:12;;;;;;;3.60;1.80;;;15.60;56.40;;;;;;5061968;28;20219;-44
2022/07/06 01:35:44;;;;;;;3.70;1.98;;;15.70;56.40;;;;;;5053475;28;20678;-44
2022/07/06 01:38:15;;;;;;;4.20;2.05;;;15.70;56.40;;;;;;5052729;28;20593;-45
2022/07/06 01:40:46;;;;;;;2.75;1.92;;;15.70;56.50;;;;;;5052935;28;20196;-44
2022/07/06 01:43:16;;;;;;;4.25;1.65;;;15.70;56.50;;;;;;5056152;28;20229;-44
2022/07/06 01:45:47;;;;;;;4.28;2.28;;;15.70;56.40;;;;;;5072374;28;20642;-44
2022/07/06 01:48:18;;;;;;;3.72;1.88;;;15.80;56.40;;;;;;5072253;28;20198;-45
2022/07/06 01:50:51;;;;;;;4.57;1.83;;;15.80;56.40;;;;;;5072748;28;20221;-45
2022/07/06 01:53:21;;;;;;;2.67;1.90;;;15.80;56.30;;;;;;5072331;28;20766;-44
2022/07/06 01:55:52;;;;;;;3.28;2.08;;;15.80;56.20;;;;;;5073182;28;20198;-45
2022/07/06 01:58:23;;;;;;;2.70;1.55;;;15.90;56.10;;;;;;5072413;28;20702;-47
2022/07/06 02:00:54;;;;;;;4.18;2.00;;;15.90;56.10;;;;;;5071846;28;20198;-44
2022/07/06 02:03:24;;;;;;;3.85;1.90;;;15.90;56.00;;;;;;5072641;28;20210;-45
2022/07/06 02:05:57;;;;;;;4.43;2.00;;;15.90;56.00;;;;;;5071847;28;20199;-45
2022/07/06 02:08:28;;;;;;;3.85;1.65;;;16.00;56.00;;;;;;5065094;28;20207;-46
2022/07/06 02:10:59;;;;;;;2.97;1.80;;;16.00;55.90;;;;;;5054948;28;20197;-47
2022/07/06 02:13:29;;;;;;;2.22;1.60;;;16.00;55.90;;;;;;5055761;28;20203;-45
2022/07/06 02:16:00;;;;;;;3.28;1.70;;;16.00;55.90;;;;;;5071673;28;20235;-45
2022/07/06 02:18:31;;;;;;;3.83;2.10;;;16.00;55.90;;;;;;5071331;28;20705;-45
2022/07/06 02:21:04;;;;;;;2.97;2.15;;;16.10;55.90;;;;;;5072171;28;20199;-45
2022/07/06 02:23:35;;;;;;;3.42;1.95;;;16.10;55.90;;;;;;5071271;28;20851;-44
2022/07/06 02:26:05;;;;;;;3.25;1.90;;;16.10;55.80;;;;;;5072135;28;20198;-44
2022/07/06 02:28:36;;;;;;;4.47;1.90;;;16.10;55.90;;;;;;5056335;28;20242;-45
2022/07/06 02:31:07;;;;;;;4.25;2.15;;;16.10;55.80;;;;;;5061483;28;20194;-45
2022/07/06 02:33:37;;;;;;;3.88;2.28;;;16.20;55.80;;;;;;5067706;28;20532;-44
2022/07/06 02:36:10;;;;;;;5.00;2.33;;;16.20;56.40;;;;;;5052427;28;20210;-45
2022/07/06 02:38:41;;;;;;;3.33;2.05;;;16.20;55.80;;;;;;5055902;28;20690;-46
2022/07/06 02:41:12;;;;;;;3.88;2.00;;;16.30;55.80;;;;;;5072603;28;20199;-45
2022/07/06 02:43:43;;;;;;;3.22;2.08;;;16.30;55.70;;;;;;5072077;28;20194;-46
2022/07/06 02:46:14;;;;;;;2.28;1.75;;;16.30;55.70;;;;;;5072274;28;20216;-45
2022/07/06 02:48:44;;;;;;;4.30;2.20;;;16.30;55.70;;;;;;5071580;28;20593;-45
2022/07/06 02:51:17;;;;;;;3.97;2.00;;;16.40;55.70;;;;;;5060722;28;20200;-46
2022/07/06 02:53:47;;;;;;;2.75;1.90;;;16.40;55.70;;;;;;5051831;28;20211;-45
2022/07/06 02:56:18;;;;;;;3.92;1.90;;;16.40;55.70;;;;;;5052079;28;20192;-45
2022/07/06 02:58:49;;;;;;;5.28;2.30;;;16.40;55.70;;;;;;5052829;28;20209;-45
2022/07/06 03:01:19;;;;;;;3.35;1.80;;;16.50;55.70;;;;;;5052136;28;20199;-45
2022/07/06 03:03:50;;;;;;;3.63;1.88;;;16.50;55.80;;;;;;5052157;28;20989;-46
2022/07/06 03:06:23;;;;;;;4.47;2.05;;;16.50;55.70;;;;;;5052214;28;20195;-46
2022/07/06 03:08:53;;;;;;;4.70;2.00;;;16.50;55.70;;;;;;5068069;28;20195;-46
2022/07/06 03:11:24;;;;;;;2.95;1.73;;;16.50;55.70;;;;;;5071091;28;20582;-44
2022/07/06 03:13:55;;;;;;;2.63;1.95;;;16.50;55.70;;;;;;5069994;28;20197;-45
2022/07/06 03:16:25;;;;;;;4.60;1.63;;;16.50;55.70;;;;;;5070598;28;20198;-44
2022/07/06 03:18:56;;;;;;;3.00;1.92;;;16.60;55.70;;;;;;5071335;28;20278;-46
2022/07/06 03:21:29;;;;;;;4.57;2.20;;;16.60;55.70;;;;;;5070521;28;20187;-45
2022/07/06 03:23:59;;;;;;;3.10;1.80;;;16.60;55.70;;;;;;5070914;28;20183;-46
2022/07/06 03:26:30;;;;;;;4.40;2.00;;;16.70;55.70;;;;;;5052024;28;20195;-44
2022/07/06 03:29:01;;;;;;;4.53;2.13;;;16.70;55.70;;;;;;5051034;28;20203;-45
2022/07/06 03:31:31;;;;;;;3.45;2.33;;;16.70;55.70;;;;;;5051668;28;20196;-45
2022/07/06 03:34:02;;;;;;;4.28;2.00;;;16.80;55.80;;;;;;5050717;28;20195;-45
2022/07/06 03:36:35;;;;;;;4.47;2.20;;;16.80;55.70;;;;;;5051354;28;20275;-45
2022/07/06 03:39:06;;;;;;;3.20;1.88;;;16.80;55.70;;;;;;5050511;28;20195;-44
2022/07/06 03:41:37;;;;;;;3.47;2.20;;;16.80;55.70;;;;;;5050464;28;20218;-44
2022/07/06 03:44:07;;;;;;;4.45;2.05;;;16.80;55.70;;;;;;5050354;28;20202;-44
2022/07/06 03:46:38;;;;;;;4.13;2.25;;;16.80;55.70;;;;;;5055461;28;20191;-44
2022/07/06 03:49:09;;;;;;;3.88;1.80;;;16.90;55.70;;;;;;5070740;28;20218;-45
2022/07/06 03:51:41;;;;;;;3.65;2.28;;;16.90;55.70;;;;;;5070535;28;20203;-45
2022/07/06 03:54:12;;;;;;;4.63;2.67;;;16.90;55.70;;;;;;5071169;28;20198;-45
2022/07/06 03:56:43;;;;;;;3.10;2.00;;;16.90;55.60;;;;;;5063814;28;20192;-45
2022/07/06 03:59:14;;;;;;;3.50;1.90;;;16.90;55.60;;;;;;5051317;28;20286;-45
2022/07/06 04:01:45;;;;;;;4.65;2.40;;;16.90;55.60;;;;;;5057760;28;20236;-45
2022/07/06 04:04:15;;;;;;;5.28;2.08;;;17.00;55.60;;;;;;5052147;28;20203;-44
2022/07/06 04:06:48;;;;;;;3.85;1.85;;;16.90;55.50;;;;;;5050542;28;20187;-44
2022/07/06 04:09:19;;;;;;;3.83;1.92;;;17.00;55.60;;;;;;5050174;28;20556;-44
2022/07/06 04:11:51;;;;;;;3.78;2.15;;;17.00;55.50;;;;;;5053876;28;20203;-44
2022/07/06 04:14:22;;;;;;;4.25;2.25;;;17.00;55.50;;;;;;5070704;28;20199;-45
2022/07/06 04:16:52;;;;;;;4.53;2.38;;;17.00;55.50;;;;;;5067230;28;20191;-45
2022/07/06 04:19:23;;;;;;;4.13;2.53;;;17.00;55.50;;;;;;5067226;28;20186;-45
2022/07/06 04:21:56;;;;;;;7.70;4.00;;;17.10;55.50;;;;;;5057133;28;20233;-46
2022/07/06 04:24:26;;;;;;;9.27;5.32;;;17.10;55.50;;;;;;5049714;28;20196;-44
2022/07/06 04:26:57;;;;;;;8.88;4.97;;;17.10;55.50;;;;;;5050232;28;20207;-45
2022/07/06 04:29:28;;;;;;;10.05;5.68;;;17.10;55.50;;;;;;5068648;28;20187;-45
2022/07/06 04:31:58;;;;;;;13.85;8.23;;;17.10;55.50;;;;;;5064320;28;20206;-45
2022/07/06 04:34:29;;;;;;;14.45;8.38;;;17.10;55.50;;;;;;5070407;28;20220;-46
2022/07/06 04:37:02;;;;;;;17.60;9.48;;;17.00;55.40;;;;;;5069914;28;20567;-45
2022/07/06 04:39:32;;;;;;;19.80;10.35;;;17.10;55.50;;;;;;5069594;28;20195;-46
2022/07/06 04:42:03;;;;;;;18.02;9.68;;;17.10;55.40;;;;;;5053826;28;20277;-45
2022/07/06 04:44:34;;;;;;;16.85;8.93;;;17.10;55.40;;;;;;5050346;28;20658;-46
2022/07/06 04:47:05;;;;;;;19.45;10.55;;;17.00;55.30;;;;;;5058222;28;20202;-46
2022/07/06 04:49:35;;;;;;;21.15;10.60;;;17.00;55.30;;;;;;5069778;28;20698;-46
2022/07/06 04:52:08;;;;;;;19.17;10.75;;;17.00;55.30;;;;;;5068977;28;20223;-45
2022/07/06 04:54:39;;;;;;;23.88;12.15;;;17.00;55.40;;;;;;5071056;28;20202;-45
2022/07/06 04:57:16;;;;;;;21.88;13.75;;;17.00;55.30;;;;;;5069803;28;20198;-47
2022/07/06 04:59:47;;;;;;;22.77;12.18;;;17.00;55.50;;;;;;5070636;28;20194;-46
2022/07/06 05:02:18;;;;;;;20.50;12.27;;;17.00;55.60;;;;;;5059466;28;20663;-46
2022/07/06 05:04:49;;;;;;;19.90;11.68;;;17.00;55.60;;;;;;5069827;28;20666;-46
2022/07/06 05:07:21;;;;;;;26.00;13.45;;;17.00;55.60;;;;;;5070826;28;20199;-46
2022/07/06 05:09:52;;;;;;;24.55;12.85;;;17.00;55.60;;;;;;5070629;28;20213;-47
2022/07/06 05:12:23;;;;;;;24.40;12.50;;;17.00;55.60;;;;;;5056598;28;20246;-46
2022/07/06 05:14:53;;;;;;;22.02;12.27;;;17.00;55.60;;;;;;5050734;28;20205;-47
2022/07/06 05:17:24;;;;;;;21.65;12.55;;;17.00;55.60;;;;;;5061876;28;20646;-47
2022/07/06 05:19:55;;;;;;;23.73;12.15;;;16.90;55.50;;;;;;5070716;28;20352;-46
2022/07/06 05:22:27;;;;;;;25.17;12.43;;;16.90;55.40;;;;;;5054444;28;20219;-45
2022/07/06 05:24:58;;;;;;;22.60;13.02;;;16.90;55.40;;;;;;5050453;28;20192;-47
2022/07/06 05:27:29;;;;;;;21.23;12.45;;;16.80;55.50;;;;;;5050266;28;20191;-47
2022/07/06 05:29:59;;;;;;;25.13;13.15;;;16.80;55.50;;;;;;5061039;28;20206;-46
2022/07/06 05:32:30;;;;;;;26.55;13.70;;;16.80;55.50;;;;;;5063546;28;20555;-46
2022/07/06 05:35:01;;;;;;;21.23;11.77;;;16.80;55.50;;;;;;5060641;28;20195;-46
2022/07/06 05:37:33;;;;;;;22.08;12.68;;;16.80;55.60;;;;;;5049107;28;20195;-47
2022/07/06 05:40:04;;;;;;;22.85;12.70;;;16.80;55.60;;;;;;5050403;28;20199;-46
2022/07/06 05:42:35;;;;;;;23.27;13.38;;;16.80;55.60;;;;;;5053123;28;20223;-46
2022/07/06 05:45:06;;;;;;;22.75;12.93;;;16.70;55.60;;;;;;5053259;28;20191;-45
2022/07/06 05:50:23;;;;;;;20.88;12.15;;;16.70;55.60;;;;;;5052565;28;20254;-46
2022/07/06 05:53:01;;;;;;;23.23;12.88;;;16.70;55.50;;;;;;5052868;28;20219;-46
2022/07/06 05:55:33;;;;;;;22.05;11.98;;;16.70;55.60;;;;;;5052798;28;20195;-47
2022/07/06 05:58:03;;;;;;;24.13;13.95;;;16.60;55.50;;;;;;5053837;28;20218;-45
2022/07/06 06:00:34;;;;;;;23.08;12.77;;;16.60;55.50;;;;;;5053190;28;20229;-46
2022/07/06 06:03:05;;;;;;;20.67;12.30;;;16.60;55.50;;;;;;5053380;28;20238;-46
2022/07/06 06:05:36;;;;;;;20.10;12.32;;;16.60;55.50;;;;;;5052964;28;20693;-46
2022/07/06 06:08:08;;;;;;;22.67;12.10;;;16.50;55.40;;;;;;5053551;28;20649;-45
2022/07/06 06:10:39;;;;;;;18.85;12.10;;;16.50;55.50;;;;;;5052677;28;20196;-46
2022/07/06 06:13:10;;;;;;;24.83;13.20;;;16.50;55.50;;;;;;5053126;28;20682;-45
2022/07/06 06:15:41;;;;;;;19.50;11.63;;;16.50;55.40;;;;;;5052682;28;20195;-47
2022/07/06 06:18:12;;;;;;;18.45;11.52;;;16.50;55.50;;;;;;5070619;28;20199;-47
2022/07/06 06:20:42;;;;;;;21.73;12.23;;;16.40;55.50;;;;;;5073014;28;20706;-45
2022/07/06 06:23:15;;;;;;;21.48;12.18;;;16.40;55.50;;;;;;5067798;28;20227;-46
2022/07/06 06:25:46;;;;;;;23.65;12.57;;;16.40;55.50;;;;;;5054770;28;20717;-46
2022/07/06 06:28:17;;;;;;;20.10;10.93;;;16.30;55.50;;;;;;5067400;28;20195;-46
2022/07/06 06:30:47;;;;;;;20.90;11.90;;;16.30;55.50;;;;;;5052268;28;20563;-47
2022/07/06 06:33:19;;;;;;;19.40;11.15;;;16.30;55.50;;;;;;5054913;28;20223;-46
2022/07/06 06:35:51;;;;;;;20.35;11.18;;;16.30;55.50;;;;;;5060885;28;20211;-46
2022/07/06 06:38:25;;;;;;;20.25;11.30;;;16.30;55.50;;;;;;5052367;28;20191;-45
2022/07/06 06:40:56;;;;;;;21.02;11.65;;;16.20;56.20;;;;;;5051982;28;20195;-46
2022/07/06 06:43:27;;;;;;;17.73;10.75;;;16.20;55.60;;;;;;5052395;28;20227;-46
2022/07/06 06:45:58;;;;;;;17.45;9.98;;;16.20;55.60;;;;;;5052986;28;20191;-46
2022/07/06 06:48:28;;;;;;;17.20;10.20;;;16.20;55.60;;;;;;5052657;28;20211;-45
2022/07/06 06:50:59;;;;;;;17.73;10.63;;;16.10;55.50;;;;;;5051388;28;20196;-47
2022/07/06 06:53:32;;;;;;;19.20;10.93;;;16.10;55.50;;;;;;5052187;28;20220;-47
2022/07/06 06:56:02;;;;;;;19.02;9.98;;;16.10;55.50;;;;;;5051958;28;20229;-45
2022/07/06 06:58:33;;;;;;;16.80;10.27;;;16.00;55.40;;;;;;5053263;28;20198;-45
2022/07/06 07:01:04;;;;;;;18.85;10.23;;;16.00;55.40;;;;;;5051671;28;20210;-46
2022/07/06 07:03:35;;;;;;;19.20;10.30;;;16.00;55.50;;;;;;5051667;28;20227;-45
2022/07/06 07:06:05;;;;;;;18.85;10.32;;;16.00;55.50;;;;;;5051684;28;20199;-45
2022/07/06 07:08:38;;;;;;;17.35;10.13;;;16.00;55.50;;;;;;5052370;28;20655;-45
2022/07/06 07:11:09;;;;;;;17.77;10.32;;;15.90;55.40;;;;;;5061506;28;20194;-46
2022/07/06 07:13:39;;;;;;;17.25;10.68;;;15.90;55.40;;;;;;5070551;28;20224;-46
2022/07/06 07:16:10;;;;;;;17.80;10.15;;;15.90;55.30;;;;;;5054520;28;20187;-45
2022/07/06 07:18:41;;;;;;;17.35;10.27;;;15.90;55.30;;;;;;5071423;28;20562;-45
2022/07/06 07:21:11;;;;;;;16.08;10.30;;;15.90;55.40;;;;;;5071573;28;20203;-45
2022/07/06 07:23:44;;;;;;;19.15;10.50;;;15.90;55.30;;;;;;5062672;28;20223;-45
2022/07/06 07:26:15;;;;;;;18.35;9.88;;;15.80;55.30;;;;;;5062096;28;20187;-44
2022/07/06 07:28:46;;;;;;;19.30;10.07;;;15.80;55.30;;;;;;5069398;28;20209;-46
2022/07/06 07:31:17;;;;;;;16.75;9.38;;;15.80;55.30;;;;;;5050787;28;20249;-44
2022/07/06 07:33:48;;;;;;;18.08;10.25;;;15.80;55.30;;;;;;5051382;28;20200;-45
2022/07/06 07:36:18;;;;;;;17.15;9.77;;;15.70;55.30;;;;;;5050791;28;20689;-45
2022/07/06 07:38:51;;;;;;;14.95;9.32;;;15.70;55.30;;;;;;5051440;28;20192;-45
2022/07/06 07:41:22;;;;;;;17.45;10.05;;;15.70;55.30;;;;;;5050946;28;20196;-45
2022/07/06 07:43:52;;;;;;;15.82;9.02;;;15.60;55.30;;;;;;5051074;28;20226;-46
2022/07/06 07:46:23;;;;;;;16.65;9.52;;;15.60;55.30;;;;;;5055038;28;20234;-48
2022/07/06 07:48:54;;;;;;;17.38;9.85;;;15.60;55.40;;;;;;5071425;28;20213;-45
2022/07/06 07:51:24;;;;;;;19.00;9.88;;;15.60;55.40;;;;;;5070954;28;20605;-45
2022/07/06 07:53:57;;;;;;;17.48;10.13;;;15.60;55.40;;;;;;5071281;28;20206;-45
2022/07/06 07:56:28;;;;;;;18.50;10.25;;;15.60;55.40;;;;;;5071397;28;20199;-45
2022/07/06 07:58:58;;;;;;;20.33;10.98;;;15.60;55.40;;;;;;5071644;28;20203;-45
2022/07/06 08:01:29;;;;;;;21.33;10.65;;;15.50;55.30;;;;;;5071193;28;20727;-44
2022/07/06 08:04:00;;;;;;;18.70;10.15;;;15.50;55.30;;;;;;5070355;28;20222;-45
2022/07/06 08:06:30;;;;;;;17.85;9.38;;;15.60;55.40;;;;;;5070805;28;20221;-45
2022/07/06 08:09:04;;;;;;;16.98;10.25;;;15.50;55.40;;;;;;5071388;28;20194;-46
2022/07/06 08:11:35;;;;;;;18.27;10.70;;;15.50;55.40;;;;;;5071286;28;20261;-44
2022/07/06 08:14:06;;;;;;;17.42;9.90;;;15.40;55.40;;;;;;5071366;28;20568;-44
2022/07/06 08:16:37;;;;;;;18.63;9.48;;;15.40;55.40;;;;;;5071417;28;20195;-45
2022/07/06 08:19:08;;;;;;;19.98;10.30;;;15.40;55.50;;;;;;5071530;28;20720;-45
2022/07/06 08:21:38;;;;;;;19.40;10.13;;;15.40;55.50;;;;;;5070834;28;20225;-46
2022/07/06 08:24:12;;;;;;;18.23;9.70;;;15.40;55.50;;;;;;5071300;28;20229;-46
2022/07/06 08:26:42;;;;;;;18.67;10.05;;;15.30;55.50;;;;;;5071303;28;20202;-44
2022/07/06 08:29:13;;;;;;;16.10;9.32;;;15.30;55.50;;;;;;5071094;28;20650;-44
2022/07/06 08:31:44;;;;;;;18.50;10.23;;;15.30;55.50;;;;;;5071177;28;20448;-44
2022/07/06 08:34:14;;;;;;;17.05;9.27;;;15.30;55.60;;;;;;5068430;28;20558;-45
2022/07/06 08:36:45;;;;;;;14.30;9.32;;;15.30;55.50;;;;;;5070688;28;20191;-45
2022/07/06 08:39:18;;;;;;;17.83;10.75;;;15.30;55.50;;;;;;5070333;28;20282;-46
2022/07/06 08:41:51;;;;;;;15.07;8.80;;;15.20;55.40;;;;;;5070842;28;20219;-45
2022/07/06 08:44:22;;;;;;;18.70;9.52;;;15.20;55.40;;;;;;5070716;28;20218;-45
2022/07/06 08:46:54;;;;;;;14.52;9.13;;;15.20;55.40;;;;;;5071045;28;20702;-45
2022/07/06 08:49:26;;;;;;;17.20;9.23;;;15.20;55.40;;;;;;5071009;28;20654;-47
2022/07/06 08:51:57;;;;;;;16.88;9.43;;;15.20;55.40;;;;;;5070219;28;20237;-45
2022/07/06 08:54:31;;;;;;;18.75;9.23;;;15.20;55.40;;;;;;5070944;28;20205;-45
2022/07/06 08:57:02;;;;;;;16.50;8.80;;;15.20;55.40;;;;;;5071068;28;20210;-44
2022/07/06 08:59:33;;;;;;;15.45;9.18;;;15.10;55.50;;;;;;5071316;28;20198;-45
2022/07/06 09:02:05;;;;;;;14.68;9.35;;;15.10;55.50;;;;;;5070651;28;20686;-46
2022/07/06 09:04:37;;;;;;;13.75;8.65;;;15.10;55.50;;;;;;5070290;28;20226;-45
2022/07/06 09:07:08;;;;;;;14.88;8.15;;;15.10;55.50;;;;;;5069956;28;20677;-45
2022/07/06 09:09:42;;;;;;;17.77;9.13;;;15.00;55.50;;;;;;5070327;28;20195;-45
2022/07/06 09:12:15;;;;;;;14.13;8.32;;;15.00;55.50;;;;;;5070826;28;20219;-45
2022/07/06 09:14:46;;;;;;;13.20;8.45;;;15.00;55.50;;;;;;5072523;28;20273;-45
2022/07/06 09:17:16;;;;;;;17.73;9.10;;;15.00;55.50;;;;;;5074544;28;20500;-44
2022/07/06 09:19:49;;;;;;;15.98;8.73;;;15.00;55.50;;;;;;5074531;28;20209;-44
2022/07/06 09:22:31;;;;;;;14.52;8.68;;;15.00;55.50;;;;;;5073789;28;20219;-45
2022/07/06 09:25:11;;;;;;;17.35;9.10;;;14.90;56.10;;;;;;5074645;28;20287;-45
2022/07/06 09:27:42;;;;;;;13.52;7.65;;;14.90;55.40;;;;;;5074509;28;20194;-45
2022/07/06 09:30:14;;;;;;;14.98;7.82;;;14.90;55.40;;;;;;5074286;28;20199;-45
2022/07/06 09:32:45;;;;;;;14.35;8.05;;;14.90;55.40;;;;;;5074214;28;20221;-46
2022/07/06 09:35:24;;;;;;;12.38;7.50;;;14.90;55.40;;;;;;5073846;28;20198;-46
2022/07/06 09:38:05;;;;;;;15.35;8.50;;;14.90;55.50;;;;;;5067238;28;20217;-45
2022/07/06 09:40:39;;;;;;;12.30;7.55;;;14.80;55.50;;;;;;5074327;28;20199;-45
2022/07/06 09:43:15;;;;;;;19.70;9.73;;;14.90;55.50;;;;;;5073944;28;20210;-45
2022/07/06 09:45:47;;;;;;;20.23;10.18;;;14.80;56.10;;;;;;5073201;28;20226;-46
2022/07/06 09:48:21;;;;;;;19.27;9.88;;;14.80;57.10;;;;;;5073165;28;20201;-45
2022/07/06 09:50:53;;;;;;;15.63;9.05;;;14.90;57.60;;;;;;5073578;28;20673;-46
2022/07/06 09:53:24;;;;;;;15.65;9.32;;;14.90;57.50;;;;;;5073135;28;20218;-45
2022/07/06 09:55:58;;;;;;;16.17;9.02;;;14.90;57.20;;;;;;5073527;28;20556;-44
2022/07/06 09:58:28;;;;;;;15.90;9.32;;;14.90;57.20;;;;;;5074272;28;20225;-45
2022/07/06 10:00:59;;;;;;;14.00;8.63;;;14.90;57.10;;;;;;5074107;28;20199;-44
2022/07/06 10:03:30;;;;;;;14.50;8.27;;;14.80;57.00;;;;;;5073638;28;20693;-45
2022/07/06 10:06:01;;;;;;;15.70;8.52;;;14.80;57.60;;;;;;5073248;28;20190;-44
2022/07/06 10:08:34;;;;;;;15.50;8.70;;;14.80;56.90;;;;;;5072746;28;20210;-44
2022/07/06 10:11:13;;;;;;;14.68;8.52;;;14.80;56.80;;;;;;5073067;28;20194;-44
2022/07/06 10:13:45;;;;;;;16.98;9.38;;;14.80;56.80;;;;;;5067423;28;20201;-45
2022/07/06 10:16:16;;;;;;;14.32;7.95;;;14.80;56.80;;;;;;5070358;28;20222;-44
2022/07/06 10:18:47;;;;;;;17.55;8.30;;;14.80;56.70;;;;;;5071399;28;20209;-44
2022/07/06 10:21:18;;;;;;;16.13;8.40;;;14.80;56.70;;;;;;5071613;28;20206;-44
2022/07/06 10:23:50;;;;;;;15.10;8.52;;;14.70;56.60;;;;;;5070473;28;20195;-44
2022/07/06 10:26:23;;;;;;;13.38;8.00;;;14.70;56.50;;;;;;5071282;28;20205;-44
2022/07/06 10:28:54;;;;;;;15.30;7.88;;;14.70;56.50;;;;;;5052108;28;20541;-44
2022/07/06 10:31:26;;;;;;;13.82;8.13;;;14.70;56.50;;;;;;5065809;28;20201;-44
2022/07/06 10:33:57;;;;;;;15.68;8.07;;;14.70;56.40;;;;;;5051440;28;20198;-44
2022/07/06 10:36:28;;;;;;;13.32;7.95;;;14.70;56.40;;;;;;5052266;28;20207;-44
2022/07/06 10:41:02;;;;;;;11.35;7.53;;;14.60;56.40;;;;;;5052204;28;20199;-44
2022/07/06 10:41:50;;;;;;;12.05;8.13;;;14.60;56.40;;;;;;5065050;28;20690;-44
2022/07/06 10:44:22;;;;;;;11.95;7.38;;;14.60;56.40;;;;;;5052718;28;20628;-45
2022/07/06 10:46:58;;;;;;;15.30;8.20;;;14.60;56.40;;;;;;5060269;28;20199;-44
2022/07/06 10:49:29;;;;;;;11.50;7.18;;;14.50;56.30;;;;;;5071934;28;20210;-44
2022/07/06 10:52:01;;;;;;;15.88;8.05;;;14.50;56.20;;;;;;5070945;28;20202;-43
2022/07/06 10:54:42;;;;;;;11.98;7.25;;;14.50;56.20;;;;;;5072094;28;20199;-45
2022/07/06 10:57:18;;;;;;;13.73;7.75;;;14.50;56.20;;;;;;5071877;28;20210;-45
2022/07/06 11:00:03;;;;;;;12.63;8.05;;;14.50;56.10;;;;;;5071975;28;20190;-44
2022/07/06 11:02:41;;;;;;;12.95;8.27;;;14.50;56.10;;;;;;5071918;28;20238;-45
2022/07/06 11:05:35;;;;;;;11.40;7.00;;;14.50;56.10;;;;;;5065973;28;20225;-44
2022/07/06 11:08:06;;;;;;;14.05;7.63;;;14.50;56.10;;;;;;5065480;28;20202;-45
2022/07/06 11:10:50;;;;;;;11.45;7.88;;;14.40;56.00;;;;;;5071115;28;20221;-44
2022/07/06 11:13:32;;;;;;;13.25;7.18;;;14.40;56.10;;;;;;5058478;28;20215;-46
2022/07/06 11:16:06;;;;;;;11.52;7.22;;;14.40;56.10;;;;;;5051955;28;20690;-45
2022/07/06 11:18:43;;;;;;;11.50;6.93;;;14.40;56.00;;;;;;5071371;28;20664;-44
2022/07/06 11:21:24;;;;;;;9.65;6.43;;;14.30;56.00;;;;;;5071923;28;20194;-44
2022/07/06 11:23:55;;;;;;;11.90;6.95;;;14.40;56.00;;;;;;5070623;28;20202;-45
2022/07/06 11:26:26;;;;;;;11.50;6.63;;;14.30;55.90;;;;;;5071565;28;20198;-44
2022/07/06 11:29:00;;;;;;;11.27;7.57;;;14.30;56.00;;;;;;5070598;28;20198;-45
2022/07/06 11:31:31;;;;;;;11.30;7.18;;;14.30;55.90;;;;;;5070913;28;20201;-45
2022/07/06 11:34:02;;;;;;;11.10;6.65;;;14.30;55.90;;;;;;5053624;28;20230;-45
2022/07/06 11:36:32;;;;;;;10.48;6.43;;;14.30;55.90;;;;;;5051174;28;20202;-45
2022/07/06 11:39:05;;;;;;;10.30;6.85;;;14.30;55.90;;;;;;5050799;28;20196;-45
2022/07/06 11:41:36;;;;;;;10.48;6.35;;;14.30;55.90;;;;;;5052878;28;20817;-45
2022/07/06 11:44:09;;;;;;;11.07;7.07;;;14.20;55.80;;;;;;5069038;28;20681;-45
2022/07/06 11:46:40;;;;;;;11.23;6.50;;;14.20;55.70;;;;;;5070653;28;20209;-43
2022/07/06 11:49:11;;;;;;;11.85;7.03;;;14.20;55.80;;;;;;5070194;28;20203;-44
2022/07/06 11:51:43;;;;;;;11.65;6.57;;;14.20;55.80;;;;;;5071524;28;20218;-43
2022/07/06 11:54:15;;;;;;;11.88;6.97;;;14.20;55.70;;;;;;5070650;28;20202;-44
2022/07/06 11:56:51;;;;;;;10.00;6.40;;;14.10;55.80;;;;;;5069966;28;20246;-44
2022/07/06 11:59:27;;;;;;;11.27;6.18;;;14.10;55.70;;;;;;5069861;28;20194;-45
2022/07/06 12:02:05;;;;;;;9.75;6.13;;;14.10;55.70;;;;;;5070263;28;20214;-43
2022/07/06 12:04:37;;;;;;;9.60;6.40;;;14.10;55.80;;;;;;5069198;28;20214;-44
2022/07/06 12:07:09;;;;;;;10.38;6.13;;;14.10;55.80;;;;;;5069757;28;20611;-43
2022/07/06 12:09:44;;;;;;;10.45;6.22;;;14.00;55.70;;;;;;5069856;28;20263;-43
2022/07/06 12:12:16;;;;;;;9.93;6.00;;;14.00;55.70;;;;;;5069781;28;20280;-44
2022/07/06 12:14:49;;;;;;;10.15;6.28;;;14.00;55.70;;;;;;5069994;28;20678;-45
2022/07/06 12:17:20;;;;;;;9.57;5.60;;;14.00;55.70;;;;;;5069756;28;20594;-44
2022/07/06 12:19:56;;;;;;;12.07;6.55;;;14.00;55.70;;;;;;5069163;28;20197;-43
2022/07/06 12:22:29;;;;;;;9.90;5.88;;;14.00;55.70;;;;;;5069412;28;20215;-44
2022/07/06 12:24:59;;;;;;;7.53;5.60;;;14.00;55.70;;;;;;5069283;28;20226;-44
2022/07/06 12:27:35;;;;;;;12.10;5.80;;;14.00;55.70;;;;;;5069308;28;20202;-44
2022/07/06 12:30:15;;;;;;;9.35;5.43;;;14.00;55.70;;;;;;5053273;28;20642;-42
2022/07/06 12:32:46;;;;;;;9.55;6.32;;;14.00;55.60;;;;;;5049466;28;20219;-43
2022/07/06 12:35:17;;;;;;;8.98;5.68;;;14.00;55.60;;;;;;5063410;28;20198;-44
2022/07/06 12:38:00;;;;;;;9.13;5.78;;;13.90;55.60;;;;;;5069190;28;20248;-44
2022/07/06 12:40:31;;;;;;;10.00;5.78;;;13.90;55.60;;;;;;5069258;28;20282;-43
2022/07/06 12:43:02;;;;;;;8.30;5.90;;;13.90;55.60;;;;;;5069968;28;20223;-44
2022/07/06 12:45:34;;;;;;;11.55;5.90;;;13.90;55.60;;;;;;5068576;28;20226;-43
2022/07/06 12:48:06;;;;;;;8.98;5.57;;;13.90;55.60;;;;;;5069332;28;20810;-44
2022/07/06 12:50:38;;;;;;;8.52;5.38;;;13.80;55.60;;;;;;5072230;28;20206;-44
2022/07/06 12:53:25;;;;;;;7.65;5.20;;;13.80;55.60;;;;;;5073056;28;20222;-44
2022/07/06 12:56:13;;;;;;;10.65;5.53;;;13.80;55.60;;;;;;5073651;28;20202;-45
2022/07/06 12:58:56;;;;;;;8.23;5.05;;;13.80;55.60;;;;;;5073517;28;20194;-44
2022/07/06 13:01:28;;;;;;;10.32;5.72;;;13.80;55.60;;;;;;5073893;28;20194;-44
2022/07/06 13:04:00;;;;;;;10.80;5.82;;;13.80;55.60;;;;;;5072882;28;20194;-46
2022/07/06 13:06:37;;;;;;;10.27;5.70;;;13.80;55.60;;;;;;5073082;28;20218;-44